Mahwah, NJ (07430)

2:32 AM EST on February 06, 2016 (GMT -0500)
Ramsey Emergency Management | | Change Station
CLOSE
Current Station
Personal Weather Station
Location: Ramsey, NJ
Elevation: 350 ft
Nearby Weather Stations
Active Advisory: Special Statement Active Notice: Record Report

Elev 350 ft 41.06 °N, 74.14 °W | Updated 2 seconds ago

Clear
Clear
27.7 °F
Feels Like 28 °F
N
3.0
Wind Variable Wind from WSW
Gusts 3.0 mph

Today
High -- | Low -- °F
--% Chance of Precip.
Yesterday
High -- | Low -- °F
Precip. -- in
Pressure 30.39 in
Visibility 10.0 miles
Clouds Clear
Windchill 28 °F
Dew Point 18 °F
Humidity 65%
Rainfall 0.00 in
Snow Depth Not available.
7:02 AM 5:19 PM
Waning Crescent, 7% visible
METAR KCDW 060653Z 00000KT 10SM CLR M04/M07 A3037 RMK AO2 SLP291 T10391072
Pressure 30.39 in
Visibility 10.0 miles
Clouds Clear
Windchill 28 °F
Dew Point 18 °F
Humidity 65%
Rainfall 0.00 in
Snow Depth Not available.
7:02 AM 5:19 PM
Waning Crescent, 7% visible
METAR KCDW 060653Z 00000KT 10SM CLR M04/M07 A3037 RMK AO2 SLP291 T10391072

10-Day Weather Forecast

Almanac

Astronomy

Feb. 06, 2016 Rise Set
Actual Time
Civil Twilight
Nautical Twilight
Astronomical Twilight
Moon
Length of Visible Light
Length of Day
Tomorrow will be .
, % of the Moon is Illuminated

Today's Extremes

State Highs State Lows

Community

WunderPhotos

Upload Photos

1,890,933 photos uploaded!

WunderBlog® & News

Nearby

Air Quality

  Air Quality AQ Index Pollutant
Not available.

Snow Depth

Station Depth Elevation

Earthquake Activity

City Distance Mag. Time & Date
Minimum magnitude displayed is 2.5.

Coastal Water Temperatures

Place Temperature

Stations

Nearby Weather Stations

Station Location Temp. Windchill Dew Point Humidity Wind Precip. Elev Updated Type
                   

Watches & Warnings

Special Statement
Issued: 9:24 PM EST Feb. 5, 2016 – National Weather Service

Standing water from melted snow will refreeze tonight. Icy spots
are anticipated... especially on untreated surfaces. Use extra
caution when out driving or walking tonight into Saturday morning.



924 PM EST Fri Feb 5 2016

Standing water from melted snow will refreeze tonight. Icy spots
are anticipated... especially on untreated surfaces. Use extra
caution when out driving or walking tonight into Saturday morning.